Time;durP1;ratioP1;P1;durP2;ratioP2;P2;SDS_P1;SDS_P2;PMS_P1;PMS_P2;Temp;Humidity;BMP_temperature;BMP_pressure;BME280_temperature;BME280_humidity;BME280_pressure;Samples;Min_cycle;Max_cycle;Signal;HPM_P1;HPM_P2
2021/03/19 00:01:49;;;;;;;28.83;16.23;;;;;;;-1.42;94.79;95395.63;5051880;28;20208;-60
2021/03/19 00:04:16;;;;;;;25.77;15.93;;;;;;;-1.40;95.03;95396.19;5051745;28;20197;-60
2021/03/19 00:06:44;;;;;;;27.43;15.57;;;;;;;-1.35;95.09;95396.31;5051821;28;20683;-60
2021/03/19 00:09:12;;;;;;;25.50;15.03;;;;;;;-1.60;94.98;95393.97;5051551;28;20216;-60
2021/03/19 00:11:40;;;;;;;28.67;16.60;;;;;;;-1.62;94.85;95390.84;5051482;28;20229;-60
2021/03/19 00:14:10;;;;;;;29.33;16.90;;;;;;;-1.60;95.21;95386.31;5051726;28;20197;-60
2021/03/19 00:16:39;;;;;;;28.17;16.80;;;;;;;-1.79;96.71;95383.06;5051627;28;20205;-60
2021/03/19 00:19:07;;;;;;;33.17;19.53;;;;;;;-1.78;97.15;95383.84;5051459;28;20258;-60
2021/03/19 00:21:34;;;;;;;35.10;20.37;;;;;;;-1.74;97.32;95383.19;5051526;28;20677;-60
2021/03/19 00:24:01;;;;;;;35.43;19.67;;;;;;;-1.69;98.04;95381.78;5051594;28;20225;-60
2021/03/19 00:26:28;;;;;;;41.70;22.70;;;;;;;-1.56;97.82;95384.09;5051292;28;20204;-59
2021/03/19 00:28:55;;;;;;;46.07;23.40;;;;;;;-1.55;97.73;95388.22;5051287;28;20197;-58
2021/03/19 00:31:22;;;;;;;42.33;24.10;;;;;;;-1.51;97.78;95379.13;5051195;28;20225;-62
2021/03/19 00:33:50;;;;;;;46.77;24.53;;;;;;;-1.51;97.08;95385.00;5051350;28;20228;-57
2021/03/19 00:36:17;;;;;;;46.23;24.63;;;;;;;-1.52;97.51;95385.22;5051044;28;20271;-62
2021/03/19 00:38:44;;;;;;;47.10;26.10;;;;;;;-1.55;97.63;95383.13;5051038;28;20203;-59
2021/03/19 00:41:11;;;;;;;52.17;28.07;;;;;;;-1.62;97.93;95387.53;5051066;28;20197;-60
2021/03/19 00:43:37;;;;;;;47.20;26.60;;;;;;;-1.56;98.41;95386.66;5050895;28;20236;-60
2021/03/19 00:46:05;;;;;;;54.87;27.97;;;;;;;-1.56;98.33;95381.56;5050927;28;20295;-60
2021/03/19 00:48:32;;;;;;;51.20;28.10;;;;;;;-1.56;98.81;95382.34;5049516;28;20225;-60
2021/03/19 00:51:00;;;;;;;58.17;28.43;;;;;;;-1.52;98.91;95382.66;5050948;28;20228;-60
2021/03/19 00:53:27;;;;;;;57.27;29.43;;;;;;;-1.49;98.51;95382.22;5050788;28;20204;-60
2021/03/19 00:55:55;;;;;;;74.43;36.53;;;;;;;-1.49;98.47;95387.31;5050826;28;20200;-60
2021/03/19 00:58:22;;;;;;;91.07;43.33;;;;;;;-1.49;99.44;95377.91;5050692;28;20717;-60
2021/03/19 01:00:49;;;;;;;60.50;29.27;;;;;;;-1.48;98.99;95379.44;5050560;28;20197;-60
2021/03/19 01:03:16;;;;;;;51.87;27.57;;;;;;;-1.35;99.17;95378.47;5050539;28;20272;-60
2021/03/19 01:05:44;;;;;;;50.27;28.37;;;;;;;-1.37;99.21;95373.59;5050924;28;20219;-60
2021/03/19 01:08:14;;;;;;;55.50;29.20;;;;;;;-1.31;98.92;95374.47;5050737;28;20204;-61
2021/03/19 01:10:43;;;;;;;52.47;28.87;;;;;;;-1.20;98.99;95371.16;5050454;28;20232;-60
2021/03/19 01:13:11;;;;;;;61.77;30.37;;;;;;;-1.16;98.95;95367.16;5050295;28;20587;-60
2021/03/19 01:15:39;;;;;;;52.07;29.47;;;;;;;-1.10;99.35;95370.59;5050225;28;20194;-60
2021/03/19 01:18:09;;;;;;;67.83;34.33;;;;;;;-1.04;99.43;95369.69;5050392;28;20204;-60
2021/03/19 01:20:38;;;;;;;56.90;31.23;;;;;;;-1.02;99.14;95372.81;5050341;28;20284;-60
2021/03/19 01:23:05;;;;;;;120.37;49.63;;;;;;;-0.90;99.20;95371.78;5050356;28;20221;-60
2021/03/19 01:25:33;;;;;;;114.43;45.87;;;;;;;-0.87;98.66;95371.34;5050160;28;20233;-60
2021/03/19 01:28:00;;;;;;;136.63;48.37;;;;;;;-0.84;98.71;95366.78;5050205;28;20204;-60
2021/03/19 01:30:31;;;;;;;127.33;45.77;;;;;;;-0.83;98.72;95370.88;5050309;28;20268;-60
2021/03/19 01:32:58;;;;;;;109.93;44.70;;;;;;;-0.81;99.08;95368.91;5050339;28;20211;-60
2021/03/19 01:35:30;;;;;;;78.20;37.23;;;;;;;-0.80;98.53;95360.25;5050261;28;20197;-59
2021/03/19 01:37:59;;;;;;;66.33;33.73;;;;;;;-0.77;98.64;95359.78;5050155;28;20288;-60
2021/03/19 01:40:33;;;;;;;67.67;34.27;;;;;;;-0.68;98.63;95354.09;5050066;28;20200;-60
2021/03/19 01:43:02;;;;;;;87.47;42.67;;;;;;;-0.76;98.25;95363.91;5050188;28;20280;-60
2021/03/19 01:46:17;;;;;;;95.07;45.97;;;;;;;-0.77;98.40;95359.78;5049941;28;20687;-60
2021/03/19 01:49:21;;;;;;;87.53;42.77;;;;;;;-0.76;98.60;95357.03;5049658;28;20283;-60
2021/03/19 01:52:25;;;;;;;82.63;41.83;;;;;;;-0.75;98.70;95360.34;5049773;28;20603;-60
2021/03/19 01:55:28;;;;;;;87.00;41.67;;;;;;;-0.74;98.80;95351.66;5049753;28;20270;-60
2021/03/19 01:58:32;;;;;;;81.13;37.63;;;;;;;-0.77;99.15;95347.03;5049977;28;20292;-57
2021/03/19 02:01:36;;;;;;;80.60;39.33;;;;;;;-0.80;99.15;95350.06;5049498;28;20202;-60
2021/03/19 02:04:40;;;;;;;80.90;36.23;;;;;;;-0.82;99.61;95352.81;5049810;28;20692;-61
2021/03/19 02:07:44;;;;;;;82.73;38.93;;;;;;;-0.82;100.00;95352.03;5049718;28;20283;-60
2021/03/19 02:10:47;;;;;;;83.07;38.20;;;;;;;-0.80;100.00;95350.06;5049505;28;20209;-60
2021/03/19 02:13:51;;;;;;;105.63;48.63;;;;;;;-0.85;100.00;95360.94;5049797;28;20243;-60
2021/03/19 02:16:55;;;;;;;151.00;64.47;;;;;;;-0.92;100.00;95358.50;5049603;28;20228;-60
2021/03/19 02:19:59;;;;;;;138.93;66.87;;;;;;;-0.89;100.00;95357.25;5049771;28;20194;-60
2021/03/19 02:23:02;;;;;;;119.83;57.73;;;;;;;-0.94;100.00;95354.59;5049578;28;20197;-60
2021/03/19 02:26:06;;;;;;;78.40;40.07;;;;;;;-0.92;100.00;95355.94;5049725;28;20235;-60
2021/03/19 02:29:10;;;;;;;71.50;35.93;;;;;;;-0.91;100.00;95354.16;5049463;28;20291;-60
2021/03/19 02:31:54;;;;;;;75.60;35.10;;;;;;;-0.94;100.00;95350.28;5049485;28;20315;-60
2021/03/19 02:34:26;;;;;;;73.77;35.97;;;;;;;-0.84;100.00;95344.59;5049538;28;20654;-60
2021/03/19 02:36:53;;;;;;;64.23;32.43;;;;;;;-0.83;100.00;95350.47;5049463;28;20229;-60
2021/03/19 02:39:20;;;;;;;63.27;32.47;;;;;;;-0.83;100.00;95341.06;5049417;28;20276;-60
2021/03/19 02:41:47;;;;;;;64.97;34.83;;;;;;;-0.71;100.00;95338.50;5049343;28;20202;-60
2021/03/19 02:44:14;;;;;;;79.17;44.97;;;;;;;-0.81;100.00;95348.50;5049369;28;20237;-61
2021/03/19 02:46:41;;;;;;;85.87;43.23;;;;;;;-0.83;100.00;95351.25;5049332;28;20635;-60
2021/03/19 02:49:08;;;;;;;76.67;38.27;;;;;;;-0.80;100.00;95352.59;5049035;28;20360;-59
2021/03/19 02:51:35;;;;;;;66.57;34.17;;;;;;;-0.74;99.67;95349.91;5049293;28;20225;-60
2021/03/19 02:54:02;;;;;;;66.00;32.77;;;;;;;-0.81;100.00;95353.59;5049416;28;20280;-60
2021/03/19 02:56:29;;;;;;;68.77;35.60;;;;;;;-0.79;100.00;95351.56;5049309;28;20612;-60
2021/03/19 02:58:57;;;;;;;78.47;36.80;;;;;;;-0.80;100.00;95350.06;5049352;28;20283;-60
2021/03/19 03:01:24;;;;;;;65.07;34.40;;;;;;;-0.81;100.00;95343.38;5049450;28;20280;-59
2021/03/19 03:03:51;;;;;;;62.17;33.10;;;;;;;-0.85;99.65;95352.50;5049266;28;20225;-60
2021/03/19 03:06:19;;;;;;;60.93;32.83;;;;;;;-0.89;99.86;95352.94;5049182;28;20563;-60
2021/03/19 03:08:46;;;;;;;63.20;33.17;;;;;;;-0.89;99.27;95352.16;5049544;28;20200;-60
2021/03/19 03:11:13;;;;;;;64.90;32.67;;;;;;;-0.89;99.45;95347.81;5048993;28;20373;-59
2021/03/19 03:13:39;;;;;;;69.67;35.13;;;;;;;-1.02;99.58;95347.31;5052098;28;20280;-60
2021/03/19 03:16:08;;;;;;;64.67;32.53;;;;;;;-1.10;99.73;95351.00;5052838;28;20197;-61
2021/03/19 03:18:34;;;;;;;59.23;32.37;;;;;;;-1.07;100.00;95347.19;5052599;28;20233;-60
2021/03/19 03:21:03;;;;;;;62.13;32.00;;;;;;;-1.04;100.00;95354.38;5052702;28;20697;-60
2021/03/19 03:23:32;;;;;;;58.90;30.53;;;;;;;-1.19;99.95;95354.84;5052867;28;20247;-60
2021/03/19 03:25:59;;;;;;;56.40;30.07;;;;;;;-1.17;100.00;95355.41;5052562;28;20197;-60
2021/03/19 03:28:27;;;;;;;54.97;29.23;;;;;;;-1.15;100.00;95355.97;5052526;28;20220;-60
2021/03/19 03:30:56;;;;;;;54.40;28.23;;;;;;;-1.18;100.00;95351.31;5052212;28;20221;-60
2021/03/19 03:33:23;;;;;;;45.70;25.90;;;;;;;-1.14;100.00;95339.66;5052340;28;20284;-60
2021/03/19 03:35:51;;;;;;;47.43;25.40;;;;;;;-1.20;100.00;95338.03;5052317;28;21086;-60
2021/03/19 03:38:22;;;;;;;45.80;24.23;;;;;;;-1.23;100.00;95335.91;5052390;28;20197;-60
2021/03/19 03:40:52;;;;;;;37.33;22.93;;;;;;;-1.20;100.00;95337.25;5052299;28;20197;-60
2021/03/19 03:43:19;;;;;;;38.57;22.40;;;;;;;-1.23;100.00;95347.88;5052344;28;20201;-60
2021/03/19 03:45:46;;;;;;;34.40;21.00;;;;;;;-1.23;100.00;95340.22;5052015;28;20747;-60
2021/03/19 03:48:14;;;;;;;40.97;20.27;;;;;;;-1.15;100.00;95338.13;5052183;28;20221;-60
2021/03/19 03:50:43;;;;;;;32.20;18.67;;;;;;;-1.09;100.00;95342.31;5051845;28;21166;-60
2021/03/19 03:53:10;;;;;;;33.23;19.50;;;;;;;-1.13;100.00;95346.31;5051924;28;20738;-59
2021/03/19 03:55:39;;;;;;;28.73;19.10;;;;;;;-1.09;100.00;95336.44;5052008;28;20742;-60
2021/03/19 03:58:07;;;;;;;32.10;19.20;;;;;;;-1.11;100.00;95346.09;5051843;28;20208;-60
2021/03/19 04:00:35;;;;;;;36.90;21.37;;;;;;;-1.14;99.98;95342.22;5051870;28;20604;-60
2021/03/19 04:03:03;;;;;;;36.53;19.70;;;;;;;-1.13;100.00;95343.78;5051869;28;20620;-61
2021/03/19 04:05:34;;;;;;;31.40;19.53;;;;;;;-1.27;99.96;95347.56;5051827;28;20193;-60
2021/03/19 04:08:01;;;;;;;40.57;22.13;;;;;;;-1.35;99.29;95346.13;5051908;28;20638;-61
2021/03/19 04:10:28;;;;;;;39.47;22.13;;;;;;;-1.43;98.84;95341.34;5051448;28;20271;-60
2021/03/19 04:12:55;;;;;;;44.13;23.57;;;;;;;-1.55;98.58;95350.00;5051492;28;20269;-60
2021/03/19 04:15:26;;;;;;;48.13;26.67;;;;;;;-1.58;98.49;95352.97;5051538;28;20232;-60
2021/03/19 04:17:55;;;;;;;42.77;24.17;;;;;;;-1.53;98.76;95358.19;5051554;28;20288;-61
2021/03/19 04:20:22;;;;;;;51.03;25.17;;;;;;;-1.55;98.68;95358.41;5051807;28;20725;-60
2021/03/19 04:22:50;;;;;;;41.17;24.10;;;;;;;-1.52;98.52;95362.28;5051400;28;20224;-60
2021/03/19 04:25:18;;;;;;;44.43;23.03;;;;;;;-1.58;98.15;95360.63;5051280;28;20202;-59
2021/03/19 04:27:47;;;;;;;44.00;24.73;;;;;;;-1.60;97.31;95362.63;5051295;28;20564;-60
2021/03/19 04:30:20;;;;;;;50.67;26.73;;;;;;;-1.63;97.57;95351.09;5051293;28;20643;-60
2021/03/19 04:32:48;;;;;;;43.83;24.23;;;;;;;-1.65;97.46;95357.41;5051453;28;20205;-59
2021/03/19 04:35:16;;;;;;;41.47;23.63;;;;;;;-1.64;97.60;95367.34;5051123;28;20199;-60
2021/03/19 04:37:43;;;;;;;39.57;21.60;;;;;;;-1.61;97.53;95366.16;5051020;28;20196;-59
2021/03/19 04:40:11;;;;;;;39.93;22.17;;;;;;;-1.59;97.66;95371.78;5051262;28;20339;-59
2021/03/19 04:42:38;;;;;;;45.93;24.83;;;;;;;-1.60;97.35;95365.16;5051091;28;20283;-60
2021/03/19 04:45:07;;;;;;;55.53;28.17;;;;;;;-1.55;97.64;95367.84;5050704;28;20720;-60
2021/03/19 04:47:36;;;;;;;55.40;28.07;;;;;;;-1.48;97.80;95368.47;5050391;28;20675;-61
2021/03/19 04:50:06;;;;;;;54.60;28.73;;;;;;;-1.46;97.92;95362.19;5050624;28;20201;-60
2021/03/19 04:52:33;;;;;;;52.87;27.77;;;;;;;-1.38;98.51;95364.41;5050410;28;20318;-60
2021/03/19 04:55:02;;;;;;;52.17;27.17;;;;;;;-1.34;98.55;95372.34;5050762;28;20255;-60
2021/03/19 04:57:30;;;;;;;58.60;30.83;;;;;;;-1.26;98.47;95373.81;5050362;28;20742;-60
2021/03/19 04:59:57;;;;;;;52.03;30.27;;;;;;;-1.22;99.31;95368.06;5050416;28;20197;-59
2021/03/19 05:02:31;;;;;;;53.90;28.10;;;;;;;-1.24;99.22;95367.47;5050245;28;20323;-62
2021/03/19 05:04:58;;;;;;;54.20;28.40;;;;;;;-1.22;99.81;95375.69;5050013;28;20224;-62
2021/03/19 05:07:26;;;;;;;65.40;32.00;;;;;;;-1.19;100.00;95372.69;5050099;28;20309;-61
2021/03/19 05:09:53;;;;;;;62.37;30.97;;;;;;;-1.20;100.00;95383.13;5050061;28;20236;-61
2021/03/19 05:12:20;;;;;;;55.50;30.37;;;;;;;-1.19;100.00;95377.78;5049899;28;20231;-64
2021/03/19 05:15:04;;;;;;;47.17;26.60;;;;;;;-1.17;100.00;95375.03;5050009;28;20207;-63
2021/03/19 05:17:31;;;;;;;46.87;27.20;;;;;;;-1.26;100.00;95384.78;5049839;28;20606;-62
2021/03/19 05:19:58;;;;;;;50.60;27.90;;;;;;;-1.24;100.00;95380.22;5049819;28;20207;-61
2021/03/19 05:22:26;;;;;;;53.03;30.27;;;;;;;-1.26;100.00;95386.56;5049764;28;20847;-61
2021/03/19 05:24:53;;;;;;;48.93;27.97;;;;;;;-1.17;100.00;95380.91;5049785;28;20220;-61
2021/03/19 05:27:20;;;;;;;46.63;29.23;;;;;;;-1.23;99.92;95391.19;5049728;28;20276;-60
2021/03/19 05:29:47;;;;;;;56.27;31.30;;;;;;;-1.06;100.00;95390.31;5049451;28;20205;-61
2021/03/19 05:32:14;;;;;;;56.40;32.50;;;;;;;-1.00;99.73;95398.88;5049831;28;20363;-61
2021/03/19 05:34:41;;;;;;;52.10;30.50;;;;;;;-0.90;99.71;95399.81;5049098;28;20192;-62
2021/03/19 05:37:08;;;;;;;58.37;32.77;;;;;;;-0.81;99.76;95402.84;5049436;28;20239;-62
2021/03/19 05:39:35;;;;;;;62.93;34.57;;;;;;;-0.67;99.68;95408.47;5049392;28;20235;-58
2021/03/19 05:42:02;;;;;;;59.80;34.57;;;;;;;-0.45;98.80;95414.53;5049518;28;20199;-62
2021/03/19 05:44:29;;;;;;;54.93;30.83;;;;;;;-0.47;98.92;95416.50;5049323;28;20674;-62
2021/03/19 05:47:02;;;;;;;57.50;32.07;;;;;;;-0.37;98.58;95414.16;5049302;28;20224;-61
2021/03/19 05:49:32;;;;;;;56.90;32.90;;;;;;;-0.09;98.21;95419.28;5049197;28;20226;-62
2021/03/19 05:52:01;;;;;;;57.53;32.70;;;;;;;0.33;97.22;95412.09;5049366;28;20784;-61
2021/03/19 05:54:30;;;;;;;61.67;32.30;;;;;;;0.92;95.36;95411.69;5049123;28;20564;-61
2021/03/19 05:57:16;;;;;;;85.37;44.17;;;;;;;1.33;92.44;95408.69;5049205;28;20254;-61
2021/03/19 05:59:46;;;;;;;59.10;33.87;;;;;;;1.60;89.92;95416.41;5049251;28;20196;-61
2021/03/19 06:02:25;;;;;;;66.87;37.00;;;;;;;1.80;88.38;95414.09;5049600;28;20202;-61
2021/03/19 06:05:08;;;;;;;89.47;45.60;;;;;;;1.96;87.11;95415.78;5049379;28;20353;-62
2021/03/19 06:07:41;;;;;;;91.77;48.43;;;;;;;1.97;87.28;95408.88;5048947;28;20201;-60
2021/03/19 06:10:31;;;;;;;91.30;45.77;;;;;;;2.30;86.69;95423.28;5049118;28;20248;-61
2021/03/19 06:13:12;;;;;;;77.90;41.40;;;;;;;2.64;84.71;95416.91;5049166;28;20239;-61
2021/03/19 06:15:42;;;;;;;63.70;37.90;;;;;;;2.94;81.62;95426.63;5049107;28;20255;-62
2021/03/19 06:18:24;;;;;;;59.60;34.43;;;;;;;3.17;81.16;95425.50;5049298;28;20292;-61
2021/03/19 06:20:55;;;;;;;52.77;31.90;;;;;;;3.12;81.01;95421.13;5049095;28;20741;-60
2021/03/19 06:23:25;;;;;;;64.53;35.90;;;;;;;2.95;81.26;95428.94;5049062;28;20704;-61
2021/03/19 06:26:02;;;;;;;156.47;37.27;;;;;;;2.82;82.47;95424.25;5048897;28;20197;-60
2021/03/19 06:28:33;;;;;;;73.40;39.17;;;;;;;2.84;83.24;95431.72;5049414;28;20203;-61
2021/03/19 06:31:21;;;;;;;47.43;27.53;;;;;;;2.79;82.24;95429.84;5049215;28;20290;-60
2021/03/19 06:34:02;;;;;;;58.50;30.50;;;;;;;2.74;82.61;95434.19;5048926;28;20224;-60
2021/03/19 06:36:30;;;;;;;59.37;28.77;;;;;;;2.60;83.01;95436.38;5048904;28;20570;-61
2021/03/19 06:39:07;;;;;;;55.97;27.17;;;;;;;2.73;82.80;95440.34;5048886;28;20196;-59
2021/03/19 06:41:35;;;;;;;58.23;28.20;;;;;;;2.85;83.33;95439.16;5049142;28;20224;-60
2021/03/19 06:44:23;;;;;;;50.77;27.27;;;;;;;3.01;82.95;95437.47;5048973;28;20214;-60
2021/03/19 06:46:52;;;;;;;28.90;18.27;;;;;;;2.96;81.11;95440.00;5049089;28;20197;-60
2021/03/19 06:49:20;;;;;;;35.13;19.63;;;;;;;2.72;83.35;95442.13;5052487;28;20243;-60
2021/03/19 06:51:50;;;;;;;35.17;21.70;;;;;;;2.54;84.69;95438.13;5052509;28;20324;-61
2021/03/19 06:54:21;;;;;;;34.07;21.43;;;;;;;2.62;84.88;95438.72;5052623;28;20581;-60
2021/03/19 06:57:09;;;;;;;29.10;19.60;;;;;;;2.89;85.50;95439.44;5052756;28;20280;-59
2021/03/19 06:59:45;;;;;;;34.30;19.10;;;;;;;2.88;84.11;95441.25;5052323;28;20278;-60
2021/03/19 07:02:52;;;;;;;23.80;14.67;;;;;;;2.88;82.27;95437.91;5052747;28;20201;-60
2021/03/19 07:05:51;;;;;;;29.47;16.17;;;;;;;2.77;82.68;95443.97;5052429;28;20204;-61
2021/03/19 07:08:25;;;;;;;26.20;15.40;;;;;;;2.46;84.29;95441.16;5052742;28;20208;-61
2021/03/19 07:11:45;;;;;;;26.33;16.17;;;;;;;2.91;84.86;95438.16;5052270;28;20598;-60
2021/03/19 07:14:39;;;;;;;22.53;13.90;;;;;;;3.18;83.69;95435.53;5052011;28;20227;-59
2021/03/19 07:17:19;;;;;;;23.83;13.90;;;;;;;3.37;83.50;95439.22;5052110;28;20193;-60
2021/03/19 07:20:03;;;;;;;24.60;14.73;;;;;;;3.15;81.96;95448.84;5052203;28;20200;-60
2021/03/19 07:22:49;;;;;;;24.07;15.13;;;;;;;3.02;82.90;95449.28;5052493;28;20186;-59
2021/03/19 07:25:44;;;;;;;21.63;12.37;;;;;;;3.11;81.59;95447.81;5051946;28;20246;-60
2021/03/19 07:28:41;;;;;;;17.33;11.13;;;;;;;3.29;78.33;95451.75;5051998;28;20205;-60
2021/03/19 07:31:45;;;;;;;36.60;17.83;;;;;;;3.31;79.63;95447.94;5039196;28;20232;-60
2021/03/19 07:34:43;;;;;;;23.80;14.40;;;;;;;3.46;80.76;95445.44;4995435;28;20230;-59
2021/03/19 07:37:18;;;;;;;21.30;14.33;;;;;;;3.39;81.51;95446.66;5046867;28;20236;-60
2021/03/19 07:40:21;;;;;;;21.83;14.27;;;;;;;3.57;80.93;95443.69;5052171;28;20197;-59
2021/03/19 07:43:14;;;;;;;22.27;13.67;;;;;;;3.44;78.35;95446.69;5051813;28;20232;-60
2021/03/19 07:45:51;;;;;;;27.63;15.83;;;;;;;3.78;78.94;95447.91;5051635;28;20201;-60
2021/03/19 07:48:32;;;;;;;36.43;18.20;;;;;;;4.00;78.96;95440.00;5051412;28;20400;-60
2021/03/19 07:51:26;;;;;;;23.50;14.63;;;;;;;4.26;76.54;95448.56;5051466;28;20286;-61
2021/03/19 07:54:04;;;;;;;21.80;13.73;;;;;;;4.40;76.71;95443.69;5051664;28;20278;-62
2021/03/19 07:56:39;;;;;;;23.93;13.53;;;;;;;4.96;78.12;95437.53;5051079;28;20315;-60
2021/03/19 07:59:16;;;;;;;22.73;13.30;;;;;;;4.87;74.47;95446.81;5051115;28;20229;-62
2021/03/19 08:01:55;;;;;;;17.63;12.60;;;;;;;4.79;74.58;95437.03;5051225;28;20675;-60
2021/03/19 08:04:38;;;;;;;46.37;19.93;;;;;;;5.07;73.12;95439.09;5051257;28;20204;-61
2021/03/19 08:07:27;;;;;;;16.03;11.23;;;;;;;4.83;73.85;95445.03;5051286;28;20194;-61
2021/03/19 08:10:05;;;;;;;15.13;10.17;;;;;;;5.23;70.12;95446.78;5051125;28;20264;-60
2021/03/19 08:12:41;;;;;;;24.73;11.93;;;;;;;5.62;73.74;95440.00;5050939;28;20274;-60
2021/03/19 08:15:30;;;;;;;25.53;13.23;;;;;;;5.75;71.46;95442.00;5051266;28;20193;-60
2021/03/19 08:18:03;;;;;;;17.60;11.77;;;;;;;5.49;70.95;95441.31;5051317;28;20238;-60
2021/03/19 08:20:40;;;;;;;14.33;10.67;;;;;;;5.31;68.79;95453.97;5050899;28;20201;-61
2021/03/19 08:23:22;;;;;;;16.73;11.47;;;;;;;5.05;69.79;95451.44;5051056;28;20700;-61
2021/03/19 08:25:53;;;;;;;16.73;11.93;;;;;;;5.45;70.12;95442.88;5050849;28;20229;-61
2021/03/19 08:28:28;;;;;;;16.93;11.20;;;;;;;5.40;69.21;95442.09;5051152;28;20212;-61
2021/03/19 08:31:02;;;;;;;15.37;10.43;;;;;;;5.36;67.62;95441.09;5050779;28;20224;-62
2021/03/19 08:33:56;;;;;;;18.53;11.00;;;;;;;5.63;69.08;95436.38;5050790;28;20286;-61
2021/03/19 08:36:34;;;;;;;17.27;11.93;;;;;;;5.94;68.20;95430.09;5049561;28;20584;-62
2021/03/19 08:39:07;;;;;;;16.70;10.40;;;;;;;5.66;66.30;95435.09;5050794;28;20288;-61
2021/03/19 08:41:38;;;;;;;16.33;11.80;;;;;;;5.19;67.39;95437.00;5050703;28;20193;-61
2021/03/19 08:44:07;;;;;;;17.43;11.87;;;;;;;5.16;69.18;95422.06;5050710;28;20360;-62
2021/03/19 08:46:42;;;;;;;13.77;10.50;;;;;;;5.23;69.37;95413.31;5050719;28;20742;-62
2021/03/19 08:49:15;;;;;;;16.53;10.90;;;;;;;5.12;67.64;95422.84;5050342;28;20251;-62
2021/03/19 08:51:44;;;;;;;15.43;10.13;;;;;;;5.31;67.97;95420.50;5050395;28;20235;-62
2021/03/19 08:54:31;;;;;;;14.10;10.30;;;;;;;5.46;69.19;95425.59;5050455;28;20203;-63
2021/03/19 08:57:32;;;;;;;14.23;10.17;;;;;;;5.61;68.90;95418.59;5050617;28;20200;-62
2021/03/19 08:59:59;;;;;;;14.37;9.83;;;;;;;6.04;67.21;95421.53;5047277;28;20197;-63
2021/03/19 09:02:54;;;;;;;20.30;10.70;;;;;;;6.13;66.57;95422.50;5050172;28;20643;-62
2021/03/19 09:05:30;;;;;;;25.83;12.60;;;;;;;6.22;66.29;95418.34;5050134;28;20259;-62
2021/03/19 09:08:27;;;;;;;16.30;9.70;;;;;;;5.94;65.30;95422.34;5050370;28;20279;-62
2021/03/19 09:11:20;;;;;;;13.33;9.77;;;;;;;5.89;67.20;95419.81;4987896;28;20232;-62
2021/03/19 09:14:32;;;;;;;14.33;10.67;;;;;;;6.28;68.33;95408.75;5047130;28;20235;-61
2021/03/19 09:16:59;;;;;;;15.53;10.30;;;;;;;6.44;66.01;95410.97;5049897;28;20276;-63
2021/03/19 09:20:01;;;;;;;15.47;10.43;;;;;;;5.83;65.15;95410.50;5050084;28;20347;-62
2021/03/19 09:23:03;;;;;;;15.60;10.80;;;;;;;5.41;66.77;95402.44;5028252;28;20595;-62
2021/03/19 09:25:41;;;;;;;13.00;9.10;;;;;;;5.87;66.08;95403.84;5049996;28;20207;-62
2021/03/19 09:28:20;;;;;;;12.63;8.30;;;;;;;6.05;62.71;95403.22;5049987;28;20248;-61
2021/03/19 09:30:50;;;;;;;10.57;7.73;;;;;;;6.55;62.78;95403.94;5049918;28;20232;-62
2021/03/19 09:33:59;;;;;;;19.10;10.30;;;;;;;6.97;64.53;95397.41;5049946;28;20199;-62
2021/03/19 09:37:03;;;;;;;14.73;10.43;;;;;;;6.65;63.38;95406.44;5049665;28;20280;-62
2021/03/19 09:40:06;;;;;;;13.13;9.50;;;;;;;6.20;63.02;95404.94;5049868;28;20200;-62
2021/03/19 09:42:51;;;;;;;19.13;10.23;;;;;;;6.36;65.65;95403.03;5049843;28;20250;-61
2021/03/19 09:45:44;;;;;;;15.30;9.83;;;;;;;6.83;62.93;95398.03;5049686;28;20193;-62
2021/03/19 09:48:22;;;;;;;13.23;8.40;;;;;;;6.65;62.33;95401.28;5049201;28;20224;-61
2021/03/19 09:51:27;;;;;;;13.00;8.70;;;;;;;6.99;59.67;95403.06;5049569;28;20196;-62
2021/03/19 09:53:55;;;;;;;11.33;8.57;;;;;;;7.24;61.40;95397.66;5049651;28;20212;-62
2021/03/19 09:56:28;;;;;;;11.17;8.27;;;;;;;7.00;60.98;95402.03;5049412;28;20200;-61
2021/03/19 09:58:58;;;;;;;11.80;8.70;;;;;;;7.01;61.75;95406.16;5050049;28;20201;-62
2021/03/19 10:01:42;;;;;;;65.03;27.50;;;;;;;7.02;61.10;95399.94;5049308;28;20200;-61
2021/03/19 10:04:12;;;;;;;12.80;9.17;;;;;;;6.72;60.39;95403.56;5049372;28;20197;-61
2021/03/19 10:06:45;;;;;;;12.53;9.13;;;;;;;6.73;62.45;95403.28;5049291;28;20201;-62
2021/03/19 10:09:16;;;;;;;12.53;8.57;;;;;;;6.73;60.75;95398.09;5049208;28;20197;-60
2021/03/19 10:12:02;;;;;;;11.17;8.67;;;;;;;6.86;61.00;95394.16;5049317;28;20294;-61
2021/03/19 10:14:33;;;;;;;12.37;8.53;;;;;;;7.13;58.83;95396.19;5049171;28;20680;-61
2021/03/19 10:17:29;;;;;;;11.13;8.60;;;;;;;7.14;59.45;95397.75;5049246;28;20196;-62
2021/03/19 10:19:59;;;;;;;10.97;8.33;;;;;;;7.14;61.32;95395.16;5049620;28;20204;-61
2021/03/19 10:22:40;;;;;;;11.07;7.80;;;;;;;7.07;59.71;95398.09;5052223;28;20203;-61
2021/03/19 10:25:14;;;;;;;9.97;7.87;;;;;;;7.20;60.58;95397.44;5053412;28;20221;-63
2021/03/19 10:27:44;;;;;;;11.40;8.70;;;;;;;7.33;56.97;95403.75;5053140;28;20666;-62
2021/03/19 10:30:17;;;;;;;13.37;7.87;;;;;;;7.49;54.83;95402.56;5053295;28;20342;-62
2021/03/19 10:32:46;;;;;;;9.53;7.87;;;;;;;7.66;57.70;95395.13;5053261;28;20311;-63
2021/03/19 10:35:18;;;;;;;12.67;7.77;;;;;;;7.89;55.37;95400.53;5052854;28;20227;-60
2021/03/19 10:37:52;;;;;;;11.53;8.13;;;;;;;7.64;54.43;95391.28;5052773;28;20578;-61
2021/03/19 10:40:26;;;;;;;12.00;8.07;;;;;;;7.64;55.29;95392.03;5053059;28;20213;-62
2021/03/19 10:43:01;;;;;;;12.23;8.33;;;;;;;7.80;55.49;95390.06;5052940;28;20750;-62
2021/03/19 10:45:40;;;;;;;12.70;7.50;;;;;;;8.07;53.02;95395.38;5053047;28;20698;-63
2021/03/19 10:48:15;;;;;;;10.93;7.63;;;;;;;8.37;54.84;95394.22;5052709;28;20595;-61
2021/03/19 10:50:58;;;;;;;10.13;7.80;;;;;;;8.30;53.39;95388.63;5052528;28;20250;-62
2021/03/19 10:53:53;;;;;;;9.60;7.50;;;;;;;8.31;52.48;95385.00;5052518;28;20201;-62
2021/03/19 10:56:20;;;;;;;9.73;7.30;;;;;;;8.05;53.78;95381.19;5050849;28;20196;-61
2021/03/19 10:58:53;;;;;;;9.83;7.90;;;;;;;8.25;54.21;95375.75;5052712;28;20225;-62
2021/03/19 11:01:33;;;;;;;9.90;8.03;;;;;;;8.36;53.95;95369.41;5052630;28;20201;-60
2021/03/19 11:04:05;;;;;;;10.67;7.73;;;;;;;8.33;52.19;95364.00;5052754;28;20200;-62
2021/03/19 11:06:36;;;;;;;10.40;7.87;;;;;;;8.32;53.59;95378.00;5052750;28;20205;-61
2021/03/19 11:09:11;;;;;;;9.90;6.67;;;;;;;8.43;51.26;95374.97;5052671;28;20224;-62
2021/03/19 11:11:39;;;;;;;9.03;6.40;;;;;;;7.76;50.67;95370.97;5052367;28;20614;-62
2021/03/19 11:14:09;;;;;;;9.53;7.00;;;;;;;7.95;52.62;95366.56;5052443;28;20189;-63
2021/03/19 11:16:39;;;;;;;7.27;6.37;;;;;;;8.24;51.95;95363.84;5052385;28;20205;-61
2021/03/19 11:19:09;;;;;;;17.90;9.40;;;;;;;8.60;53.79;95362.28;5052378;28;20185;-62
2021/03/19 11:21:39;;;;;;;9.17;6.27;;;;;;;8.72;51.17;95374.78;5052400;28;20193;-63
2021/03/19 11:24:22;;;;;;;7.67;5.97;;;;;;;8.61;49.91;95363.84;5052205;28;20204;-62
2021/03/19 11:27:18;;;;;;;7.47;5.13;;;;;;;8.39;48.51;95366.22;5052459;28;20205;-63
2021/03/19 11:29:47;;;;;;;7.10;5.63;;;;;;;8.11;47.55;95360.16;5050443;28;20216;-62
2021/03/19 11:32:31;;;;;;;6.37;5.67;;;;;;;8.40;49.48;95360.00;5051722;28;20290;-62
2021/03/19 11:35:14;;;;;;;7.33;5.40;;;;;;;8.30;50.00;95359.38;5052020;28;20199;-62
2021/03/19 11:37:43;;;;;;;12.13;6.57;;;;;;;8.67;50.20;95361.91;5052076;28;20197;-63
2021/03/19 11:40:17;;;;;;;7.63;5.80;;;;;;;8.49;48.17;95363.50;5050696;28;20706;-63
2021/03/19 11:42:46;;;;;;;7.20;6.23;;;;;;;8.15;50.45;95368.13;5057856;28;20193;-64
2021/03/19 11:45:16;;;;;;;8.13;4.63;;;;;;;8.16;45.92;95365.25;5053809;28;20201;-63
2021/03/19 11:47:47;;;;;;;7.23;5.07;;;;;;;8.20;47.20;95363.63;5051537;28;20211;-64
2021/03/19 11:50:29;;;;;;;6.13;5.00;;;;;;;7.98;47.39;95350.47;5051606;28;20715;-62
2021/03/19 11:52:58;;;;;;;7.17;5.07;;;;;;;8.25;45.03;95354.25;5051638;28;20315;-64
2021/03/19 11:55:28;;;;;;;6.30;5.30;;;;;;;8.33;45.91;95356.22;5051706;28;20197;-61
2021/03/19 11:57:56;;;;;;;7.40;5.30;;;;;;;8.37;47.18;95354.63;5051838;28;20285;-61
2021/03/19 12:00:26;;;;;;;6.00;4.90;;;;;;;8.33;44.84;95362.19;5051568;28;20207;-61
2021/03/19 12:02:56;;;;;;;6.40;5.27;;;;;;;8.62;45.91;95356.81;5051481;28;20633;-61